Time;durP1;ratioP1;P1;durP2;ratioP2;P2;SDS_P1;SDS_P2;PMS_P1;PMS_P2;Temp;Humidity;BMP_temperature;BMP_pressure;BME280_temperature;BME280_humidity;BME280_pressure;Samples;Min_cycle;Max_cycle;Signal;HPM_P1;HPM_P2
2022/08/10 00:00:31;;;;;;;7.57;4.82;;;17.40;99.90;;;;;;5010125;28;20083;-88
2022/08/10 00:02:59;;;;;;;6.20;4.57;;;17.40;99.90;;;;;;5032462;28;20175;-88
2022/08/10 00:05:26;;;;;;;8.68;4.82;;;17.30;99.90;;;;;;5025404;28;20037;-88
2022/08/10 00:07:52;;;;;;;6.10;4.63;;;17.30;99.90;;;;;;5012515;28;20073;-88
2022/08/10 00:10:21;;;;;;;6.53;5.15;;;17.30;99.90;;;;;;5032435;28;20072;-88
2022/08/10 00:12:47;;;;;;;7.35;4.70;;;17.20;99.90;;;;;;5041729;28;20033;-87
2022/08/10 00:15:14;;;;;;;;;;;17.20;99.90;;;;;;5024817;28;20060;-89
2022/08/10 00:17:40;;;;;;;5.88;5.00;;;17.20;99.90;;;;;;5060561;28;19917;-88
2022/08/10 00:20:07;;;;;;;8.00;5.82;;;17.20;99.90;;;;;;5037874;28;21368;-87
2022/08/10 00:22:33;;;;;;;9.48;5.20;;;17.20;99.90;;;;;;5051688;28;20083;-86
2022/08/10 00:24:59;;;;;;;6.60;5.70;;;17.10;99.90;;;;;;5007850;28;20417;-87
2022/08/10 00:27:25;;;;;;;;;;;17.10;99.90;;;;;;5024364;28;20090;-88
2022/08/10 00:29:52;;;;;;;10.38;6.03;;;17.10;99.90;;;;;;5040728;28;19932;-87
2022/08/10 00:32:18;;;;;;;;;;;17.00;99.90;;;;;;5040004;28;20037;-87
2022/08/10 00:34:47;;;;;;;8.50;6.00;;;17.00;99.90;;;;;;5044376;28;19927;-88
2022/08/10 00:37:14;;;;;;;7.25;5.85;;;17.00;99.90;;;;;;5013291;28;20216;-88
2022/08/10 00:39:40;;;;;;;9.63;6.20;;;16.90;99.90;;;;;;5042005;28;20046;-87
2022/08/10 00:42:10;;;;;;;7.95;5.63;;;16.90;99.90;;;;;;5037618;28;20041;-88
2022/08/10 00:44:39;;;;;;;6.47;5.68;;;16.90;99.90;;;;;;5007648;28;20096;-86
2022/08/10 00:47:05;;;;;;;7.72;5.50;;;16.90;99.90;;;;;;5026179;28;20489;-88
2022/08/10 00:49:31;;;;;;;8.65;5.88;;;16.90;99.90;;;;;;5042043;28;20045;-87
2022/08/10 00:51:58;;;;;;;7.80;6.25;;;16.90;99.90;;;;;;5040459;28;20412;-87
2022/08/10 00:54:23;;;;;;;;;;;16.80;99.90;;;;;;5026769;28;20045;-88
2022/08/10 00:56:49;;;;;;;8.73;6.32;;;16.80;99.90;;;;;;5043977;28;19925;-88
2022/08/10 00:59:15;;;;;;;12.18;6.70;;;16.80;99.90;;;;;;5036819;28;20037;-88
2022/08/10 01:01:41;;;;;;;;;;;16.80;99.90;;;;;;5044854;28;20526;-88
2022/08/10 01:04:07;;;;;;;9.02;6.40;;;16.80;99.90;;;;;;5028139;28;19917;-88
2022/08/10 01:06:46;;;;;;;8.10;6.57;;;16.80;99.90;;;;;;5020722;28;20030;-88
2022/08/10 01:09:29;;;;;;;10.15;6.80;;;16.80;99.90;;;;;;5045539;28;20060;-88
2022/08/10 01:12:08;;;;;;;8.73;6.30;;;16.80;99.90;;;;;;5048537;28;20056;-88
2022/08/10 01:14:40;;;;;;;10.35;7.78;;;16.80;99.90;;;;;;5060052;28;20037;-88
2022/08/10 01:17:14;;;;;;;9.50;6.80;;;16.80;99.90;;;;;;5043334;28;20041;-87
2022/08/10 01:19:54;;;;;;;10.20;7.07;;;16.80;99.90;;;;;;5045336;28;20052;-88
2022/08/10 01:22:52;;;;;;;10.43;6.70;;;16.70;99.90;;;;;;5017097;28;20048;-88
2022/08/10 01:25:24;;;;;;;11.13;7.13;;;16.70;99.90;;;;;;5037089;28;20103;-87
2022/08/10 01:28:11;;;;;;;11.15;7.05;;;16.70;99.90;;;;;;5042853;28;20052;-88
2022/08/10 01:30:39;;;;;;;11.20;7.43;;;16.70;99.90;;;;;;5047493;28;20037;-88
2022/08/10 01:33:11;;;;;;;10.90;7.38;;;16.70;99.90;;;;;;5036882;28;20060;-88
2022/08/10 01:35:51;;;;;;;12.40;7.80;;;16.60;99.90;;;;;;5036480;28;20044;-88
2022/08/10 01:38:46;;;;;;;10.63;7.47;;;16.60;99.90;;;;;;5025930;28;20098;-88
2022/08/10 01:41:20;;;;;;;11.63;7.65;;;16.70;99.90;;;;;;5055053;28;20412;-88
2022/08/10 01:43:55;;;;;;;8.82;6.85;;;16.60;99.90;;;;;;5042704;28;20039;-88
2022/08/10 01:46:22;;;;;;;9.35;6.75;;;16.60;99.90;;;;;;5044487;28;20041;-88
2022/08/10 01:48:52;;;;;;;9.48;6.53;;;16.60;99.90;;;;;;5026231;28;20529;-88
2022/08/10 01:51:29;;;;;;;8.65;6.75;;;16.60;99.90;;;;;;5025831;28;20113;-88
2022/08/10 01:54:02;;;;;;;8.73;6.28;;;16.60;99.90;;;;;;5038160;28;20033;-88
2022/08/10 01:56:32;;;;;;;10.43;6.57;;;16.60;99.90;;;;;;5036725;28;20048;-89
2022/08/10 01:59:06;;;;;;;9.30;6.55;;;16.60;99.90;;;;;;5023182;28;20091;-88
2022/08/10 02:01:41;;;;;;;8.38;6.35;;;16.60;99.90;;;;;;5020239;28;20029;-86
2022/08/10 02:04:10;;;;;;;7.20;5.90;;;16.60;99.90;;;;;;5047098;28;20231;-88
2022/08/10 02:06:40;;;;;;;9.30;6.57;;;16.60;99.90;;;;;;5045065;28;20108;-88
2022/08/10 02:09:07;;;;;;;8.88;6.20;;;16.60;99.90;;;;;;5024700;28;20037;-87
2022/08/10 02:11:37;;;;;;;9.07;6.28;;;16.60;99.90;;;;;;5010518;28;20513;-88
2022/08/10 02:14:04;;;;;;;7.93;6.50;;;16.60;99.90;;;;;;5043622;28;20559;-88
2022/08/10 02:16:32;;;;;;;9.38;6.55;;;16.60;99.90;;;;;;5045975;28;20131;-88
2022/08/10 02:19:02;;;;;;;8.75;6.68;;;16.50;99.90;;;;;;5044742;28;20094;-88
2022/08/10 02:21:29;;;;;;;7.70;6.47;;;16.50;99.90;;;;;;5016832;28;20052;-88
2022/08/10 02:23:56;;;;;;;9.57;6.55;;;16.50;99.90;;;;;;5026750;28;20044;-88
2022/08/10 02:26:23;;;;;;;8.07;6.18;;;16.50;99.90;;;;;;5039524;28;20037;-88
2022/08/10 02:28:49;;;;;;;;;;;16.50;99.90;;;;;;5047878;28;20118;-89
2022/08/10 02:31:19;;;;;;;10.73;7.38;;;16.50;99.90;;;;;;5042798;28;19963;-88
2022/08/10 02:33:47;;;;;;;8.63;6.57;;;16.50;99.90;;;;;;5040990;28;20045;-88
2022/08/10 02:38:47;;;;;;;8.40;6.50;;;16.50;99.90;;;;;;5025550;28;21576;-87
2022/08/10 02:41:16;;;;;;;9.88;6.82;;;16.50;99.90;;;;;;5003216;28;20528;-88
2022/08/10 02:43:49;;;;;;;10.57;7.65;;;16.40;99.90;;;;;;4997044;28;20034;-88
2022/08/10 02:46:25;;;;;;;10.18;7.60;;;16.40;99.90;;;;;;5015866;28;20640;-88
2022/08/10 02:49:00;;;;;;;10.55;7.60;;;16.40;99.90;;;;;;5019326;28;20782;-89
2022/08/10 02:51:53;;;;;;;11.40;8.10;;;16.40;99.90;;;;;;5022061;28;20033;-88
2022/08/10 02:54:27;;;;;;;13.23;7.72;;;16.40;99.90;;;;;;5024497;28;20140;-88
2022/08/10 02:56:54;;;;;;;10.55;7.60;;;16.40;99.90;;;;;;5020288;28;20407;-88
2022/08/10 02:59:27;;;;;;;12.32;8.07;;;16.40;99.90;;;;;;5027025;28;20060;-89
2022/08/10 03:01:57;;;;;;;11.85;8.40;;;16.40;99.90;;;;;;5001870;28;20402;-88
2022/08/10 03:04:30;;;;;;;9.73;7.95;;;16.30;99.90;;;;;;4999072;28;20339;-88
2022/08/10 03:07:01;;;;;;;10.63;7.68;;;16.30;99.90;;;;;;5017800;28;20041;-88
2022/08/10 03:09:30;;;;;;;13.60;8.32;;;16.30;99.90;;;;;;5005924;28;20076;-89
2022/08/10 03:11:57;;;;;;;11.63;7.95;;;16.30;99.90;;;;;;5020406;28;20053;-89
2022/08/10 03:14:25;;;;;;;12.20;8.57;;;16.30;99.90;;;;;;4980979;28;20049;-88
2022/08/10 03:16:53;;;;;;;11.48;8.73;;;16.30;99.90;;;;;;4999716;28;20033;-89
2022/08/10 03:19:20;;;;;;;10.20;8.20;;;16.30;99.90;;;;;;5014335;28;20034;-88
2022/08/10 03:21:48;;;;;;;11.65;7.65;;;16.30;99.90;;;;;;4997013;28;20088;-89
2022/08/10 03:24:21;;;;;;;11.90;8.50;;;16.30;99.90;;;;;;5015403;28;20061;-88
2022/08/10 03:26:50;;;;;;;9.75;7.88;;;16.30;99.90;;;;;;4983637;28;20401;-89
2022/08/10 03:29:18;;;;;;;12.38;7.60;;;16.30;99.90;;;;;;4982677;28;20048;-88
2022/08/10 03:31:45;;;;;;;12.80;7.90;;;16.30;99.90;;;;;;4990648;28;20026;-89
2022/08/10 03:34:13;;;;;;;14.10;8.32;;;16.20;99.90;;;;;;5022972;28;20144;-87
2022/08/10 03:36:38;;;;;;;11.95;8.52;;;16.20;99.90;;;;;;5023011;28;20497;-87
2022/08/10 03:39:04;;;;;;;11.77;8.60;;;16.20;99.90;;;;;;5024598;28;20068;-88
2022/08/10 03:41:35;;;;;;;12.63;8.57;;;16.20;99.90;;;;;;5001785;28;20044;-88
2022/08/10 03:44:03;;;;;;;12.88;8.65;;;16.20;99.90;;;;;;5022725;28;20069;-88
2022/08/10 03:46:34;;;;;;;13.23;8.27;;;16.20;99.90;;;;;;5018595;28;20045;-88
2022/08/10 03:49:02;;;;;;;12.38;8.15;;;16.20;99.90;;;;;;5017259;28;20048;-87
2022/08/10 03:51:28;;;;;;;12.75;8.43;;;16.20;99.90;;;;;;5031418;28;20037;-87
2022/08/10 03:53:54;;;;;;;;;;;16.20;99.90;;;;;;5024839;28;20042;-88
2022/08/10 03:56:21;;;;;;;14.88;8.57;;;16.20;99.90;;;;;;4988271;28;20008;-88
2022/08/10 03:58:47;;;;;;;12.63;8.90;;;16.10;99.90;;;;;;5007040;28;20447;-86
2022/08/10 04:01:17;;;;;;;12.20;8.18;;;16.20;99.90;;;;;;5005277;28;20072;-89
2022/08/10 04:03:43;;;;;;;12.80;8.35;;;16.20;99.90;;;;;;5026444;28;20551;-89
2022/08/10 04:06:10;;;;;;;13.70;7.78;;;16.20;99.90;;;;;;4994385;28;20034;-89
2022/08/10 04:08:46;;;;;;;12.95;8.52;;;16.10;99.90;;;;;;5009789;28;20563;-88
2022/08/10 04:11:11;;;;;;;14.25;8.45;;;16.10;99.90;;;;;;5024025;28;20034;-89
2022/08/10 04:13:37;;;;;;;12.48;8.38;;;16.20;99.90;;;;;;4971739;28;20060;-89
2022/08/10 04:16:05;;;;;;;13.13;8.52;;;16.10;99.90;;;;;;5027745;28;20460;-87
2022/08/10 04:18:33;;;;;;;11.30;7.70;;;16.20;99.90;;;;;;5019086;28;20068;-85
2022/08/10 04:21:08;;;;;;;16.38;8.52;;;16.10;99.90;;;;;;4989777;28;20117;-88
2022/08/10 04:23:39;;;;;;;15.15;8.57;;;16.10;99.90;;;;;;5019623;28;20042;-89
2022/08/10 04:26:05;;;;;;;11.85;8.43;;;16.10;99.90;;;;;;5029686;28;20501;-89
2022/08/10 04:28:31;;;;;;;11.73;8.25;;;16.10;99.90;;;;;;5022583;28;20500;-85
2022/08/10 04:31:00;;;;;;;12.77;8.68;;;16.10;99.90;;;;;;4988333;28;20033;-83
2022/08/10 04:33:27;;;;;;;13.48;8.60;;;16.10;99.90;;;;;;5006441;28;20037;-83
2022/08/10 04:35:54;;;;;;;15.10;8.25;;;16.20;99.90;;;;;;5023675;28;20033;-83
2022/08/10 04:38:22;;;;;;;14.20;8.57;;;16.10;99.90;;;;;;5029666;28;20050;-84
2022/08/10 04:40:48;;;;;;;10.95;7.63;;;16.20;99.90;;;;;;5020175;28;20136;-83
2022/08/10 04:43:13;;;;;;;10.80;7.45;;;16.20;99.90;;;;;;5006702;28;20474;-82
2022/08/10 04:45:43;;;;;;;12.30;7.70;;;16.20;99.90;;;;;;5014789;28;20125;-82
2022/08/10 04:48:09;;;;;;;10.57;7.22;;;16.30;99.90;;;;;;5019979;28;20045;-81
2022/08/10 04:50:34;;;;;;;9.75;7.65;;;16.30;99.90;;;;;;4990459;28;20033;-82
2022/08/10 04:53:00;;;;;;;12.55;7.50;;;16.30;99.90;;;;;;5029636;28;20041;-82
2022/08/10 04:55:26;;;;;;;15.10;7.63;;;16.30;99.90;;;;;;4990579;28;20045;-81
2022/08/10 04:57:51;;;;;;;9.95;7.07;;;16.30;99.90;;;;;;4954145;28;20046;-82
2022/08/10 05:00:17;;;;;;;12.02;7.25;;;16.30;99.90;;;;;;4991568;28;20525;-81
2022/08/10 05:02:43;;;;;;;11.63;7.50;;;16.30;99.90;;;;;;5010920;28;20569;-81
2022/08/10 05:05:09;;;;;;;11.23;6.78;;;16.30;99.90;;;;;;5019003;28;20044;-81
2022/08/10 05:07:35;;;;;;;13.20;7.60;;;16.40;99.90;;;;;;5016393;28;20083;-81
2022/08/10 05:10:01;;;;;;;11.23;7.45;;;16.40;99.90;;;;;;4993499;28;20041;-81
2022/08/10 05:12:26;;;;;;;8.88;6.97;;;16.50;99.90;;;;;;5017258;28;20046;-81
2022/08/10 05:14:52;;;;;;;11.00;6.65;;;16.50;99.90;;;;;;5015869;28;20069;-82
2022/08/10 05:17:18;;;;;;;11.50;6.82;;;16.50;99.90;;;;;;5014061;28;20058;-81
2022/08/10 05:19:44;;;;;;;8.75;6.88;;;16.60;99.90;;;;;;5015587;28;20040;-81
2022/08/10 05:22:10;;;;;;;11.45;7.10;;;16.60;99.90;;;;;;4976640;28;20034;-79
2022/08/10 05:24:36;;;;;;;10.20;6.80;;;16.70;99.90;;;;;;4975746;28;20034;-81
2022/08/10 05:27:01;;;;;;;9.90;6.45;;;16.70;99.90;;;;;;4994235;28;20397;-80
2022/08/10 05:29:27;;;;;;;9.15;6.60;;;16.80;99.90;;;;;;4984795;28;20046;-80
2022/08/10 05:31:54;;;;;;;12.95;7.40;;;16.80;99.90;;;;;;4991705;28;20036;-80
2022/08/10 05:34:25;;;;;;;;;;;16.90;99.90;;;;;;5009279;28;20038;-81
2022/08/10 05:36:52;;;;;;;10.10;7.28;;;17.00;99.90;;;;;;4986581;28;19917;-82
2022/08/10 05:39:19;;;;;;;12.07;7.35;;;17.00;99.90;;;;;;4979140;28;20050;-81
2022/08/10 05:41:46;;;;;;;10.00;6.85;;;17.10;99.90;;;;;;5005464;28;20034;-81
2022/08/10 05:44:12;;;;;;;10.20;7.15;;;17.20;99.90;;;;;;4998517;28;20051;-80
2022/08/10 05:46:38;;;;;;;8.77;7.28;;;17.30;99.90;;;;;;4998927;28;20045;-81
2022/08/10 05:49:03;;;;;;;10.10;6.78;;;17.40;99.90;;;;;;4985671;28;20042;-82
2022/08/10 05:51:30;;;;;;;10.02;6.85;;;17.50;99.90;;;;;;4977065;28;20046;-81
2022/08/10 05:53:56;;;;;;;11.55;6.60;;;17.60;99.90;;;;;;4999531;28;20124;-81
2022/08/10 05:56:21;;;;;;;8.57;6.80;;;17.70;99.90;;;;;;4999884;28;20502;-80
2022/08/10 05:58:48;;;;;;;9.63;6.50;;;17.80;99.90;;;;;;4980929;28;20164;-81
2022/08/10 06:01:15;;;;;;;10.45;6.55;;;18.00;99.90;;;;;;4980735;28;20541;-81
2022/08/10 06:03:57;;;;;;;10.63;6.20;;;18.00;99.90;;;;;;5013373;28;20072;-81
2022/08/10 06:06:26;;;;;;;8.38;6.43;;;18.10;99.90;;;;;;5016114;28;20080;-81
2022/08/10 06:08:52;;;;;;;9.15;6.35;;;18.20;99.90;;;;;;5011958;28;20047;-80
2022/08/10 06:11:19;;;;;;;7.95;5.85;;;18.30;99.90;;;;;;5014538;28;20104;-80
2022/08/10 06:16:36;;;;;;;8.70;5.90;;;18.50;99.90;;;;;;5021763;28;20048;-82
2022/08/10 06:19:02;;;;;;;7.63;5.50;;;18.70;99.90;;;;;;5008944;28;20097;-80
2022/08/10 06:21:28;;;;;;;6.97;4.63;;;18.70;99.90;;;;;;5020376;28;20042;-81
2022/08/10 06:24:00;;;;;;;6.45;4.82;;;18.80;99.90;;;;;;4984816;28;20486;-81
2022/08/10 06:26:26;;;;;;;6.32;4.57;;;19.20;99.90;;;;;;5015929;28;20044;-82
2022/08/10 06:28:58;;;;;;;6.38;4.53;;;19.60;99.90;;;;;;5009972;28;20041;-81
2022/08/10 06:31:26;;;;;;;4.82;3.63;;;20.10;99.90;;;;;;5009029;28;20078;-81
2022/08/10 06:33:53;;;;;;;7.40;4.43;;;20.40;99.90;;;;;;5002183;28;20041;-81
2022/08/10 06:36:21;;;;;;;6.97;3.70;;;20.60;99.90;;;;;;4983173;28;20482;-81
2022/08/10 06:38:48;;;;;;;6.30;3.28;;;21.00;99.90;;;;;;5010254;28;20058;-81
2022/08/10 06:41:20;;;;;;;3.63;3.05;;;21.30;99.90;;;;;;4991278;28;20509;-81
2022/08/10 06:43:55;;;;;;;4.05;3.05;;;21.60;99.90;;;;;;5013280;28;20045;-88
2022/08/10 06:46:22;;;;;;;3.70;3.15;;;21.70;99.90;;;;;;5019702;28;20042;-89
2022/08/10 06:49:00;;;;;;;6.00;3.22;;;22.00;99.90;;;;;;5000757;28;20490;-89
2022/08/10 06:51:33;;;;;;;6.00;2.70;;;22.40;99.90;;;;;;5023093;28;20525;-90
2022/08/10 06:54:11;;;;;;;4.10;2.88;;;22.50;99.90;;;;;;5016642;28;20108;-90
2022/08/10 06:56:43;;;;;;;7.72;2.30;;;22.70;99.90;;;;;;5015805;28;20041;-89
2022/08/10 06:59:20;;;;;;;5.72;2.60;;;22.70;99.90;;;;;;5003676;28;20042;-90
2022/08/10 07:02:05;;;;;;;6.22;2.35;;;22.80;99.90;;;;;;5014496;28;20045;-91
2022/08/10 07:04:42;;;;;;;6.68;2.35;;;22.90;99.90;;;;;;5001042;28;20037;-90
2022/08/10 07:07:12;;;;;;;4.32;2.33;;;23.10;99.90;;;;;;5015358;28;20038;-89
2022/08/10 07:09:39;;;;;;;4.43;2.72;;;23.30;99.90;;;;;;4981692;28;20042;-90
2022/08/10 07:12:07;;;;;;;5.97;2.50;;;23.20;99.90;;;;;;4998230;28;20046;-89
2022/08/10 07:14:37;;;;;;;5.15;2.90;;;23.10;99.90;;;;;;4999885;28;20041;-86
2022/08/10 07:17:04;;;;;;;7.15;2.55;;;23.20;99.90;;;;;;4991995;28;20042;-86
2022/08/10 07:19:31;;;;;;;3.58;2.00;;;23.40;99.90;;;;;;5003576;28;20091;-84
2022/08/10 07:21:58;;;;;;;3.75;2.38;;;23.60;99.90;;;;;;4995136;28;20034;-85
2022/08/10 07:24:26;;;;;;;3.30;2.17;;;23.90;99.90;;;;;;4995218;28;20445;-84
2022/08/10 07:26:55;;;;;;;2.70;2.15;;;24.10;99.90;;;;;;4976590;28;20120;-84
2022/08/10 07:29:27;;;;;;;4.32;2.13;;;24.20;99.90;;;;;;5007616;28;20060;-85
2022/08/10 07:31:55;;;;;;;3.30;2.10;;;24.30;99.90;;;;;;4983168;28;20387;-84
2022/08/10 07:34:22;;;;;;;3.78;2.38;;;24.50;99.90;;;;;;5006977;28;20074;-84
2022/08/10 07:36:51;;;;;;;5.32;2.38;;;24.50;99.90;;;;;;5013084;28;20112;-85
2022/08/10 07:39:18;;;;;;;3.58;2.15;;;24.40;99.90;;;;;;4998465;28;20037;-85
2022/08/10 07:41:47;;;;;;;4.63;2.20;;;24.50;99.90;;;;;;4998478;28;20049;-86
2022/08/10 07:44:15;;;;;;;5.55;2.35;;;24.60;99.90;;;;;;4996799;28;20532;-85
2022/08/10 07:46:45;;;;;;;3.65;2.38;;;24.70;99.90;;;;;;4985675;28;20497;-87
2022/08/10 07:49:18;;;;;;;4.75;2.40;;;24.80;99.90;;;;;;5021058;28;20112;-84
2022/08/10 07:51:44;;;;;;;5.68;2.47;;;24.90;99.90;;;;;;5022437;28;20328;-90
2022/08/10 07:54:14;;;;;;;6.40;2.50;;;25.10;99.90;;;;;;4991173;28;20501;-87
2022/08/10 07:56:44;;;;;;;4.53;2.00;;;25.20;99.90;;;;;;5015186;28;20034;-89
2022/08/10 07:59:14;;;;;;;5.50;1.80;;;25.30;99.90;;;;;;5026682;28;20044;-89
2022/08/10 08:01:45;;;;;;;4.07;1.98;;;25.70;99.90;;;;;;5014155;28;20044;-89
2022/08/10 08:04:13;;;;;;;4.30;2.25;;;25.90;99.90;;;;;;4999212;28;20087;-89
2022/08/10 08:06:41;;;;;;;3.58;1.90;;;25.80;99.90;;;;;;5019380;28;20097;-89
2022/08/10 08:09:07;;;;;;;4.88;2.00;;;25.90;99.90;;;;;;5018202;28;20041;-89
2022/08/10 08:11:36;;;;;;;3.05;2.10;;;25.80;99.90;;;;;;4997938;28;20045;-89
2022/08/10 08:14:04;;;;;;;4.78;1.90;;;25.90;99.90;;;;;;4997784;28;20092;-88
2022/08/10 08:16:32;;;;;;;6.10;1.95;;;26.00;99.90;;;;;;4984328;28;20042;-88
2022/08/10 08:18:59;;;;;;;4.32;2.03;;;26.20;99.90;;;;;;5016919;28;20082;-88
2022/08/10 08:21:27;;;;;;;3.83;2.00;;;26.30;99.90;;;;;;5002091;28;20042;-88
2022/08/10 08:23:54;;;;;;;4.03;2.13;;;26.40;99.90;;;;;;4981114;28;20045;-89
2022/08/10 08:26:21;;;;;;;3.60;1.63;;;26.40;99.90;;;;;;4983084;28;20038;-87
2022/08/10 08:28:49;;;;;;;3.83;2.00;;;26.50;99.90;;;;;;4985348;28;20128;-86
2022/08/10 08:31:16;;;;;;;3.20;1.80;;;26.80;99.90;;;;;;5029206;28;20460;-86
2022/08/10 08:33:44;;;;;;;2.55;1.50;;;27.10;99.90;;;;;;5020953;28;20065;-87
2022/08/10 08:36:12;;;;;;;4.47;1.50;;;27.30;99.90;;;;;;5005731;28;20045;-87
2022/08/10 08:38:41;;;;;;;3.67;1.70;;;27.40;99.90;;;;;;5000585;28;20053;-89
2022/08/10 08:41:25;;;;;;;3.63;1.70;;;27.60;99.90;;;;;;5027745;28;20041;-90
2022/08/10 08:43:54;;;;;;;2.88;1.58;;;27.80;99.90;;;;;;5025112;28;20065;-88
2022/08/10 08:46:31;;;;;;;4.13;1.92;;;27.80;99.90;;;;;;5008705;28;20077;-88
2022/08/10 08:49:41;;;;;;;4.75;1.20;;;27.90;99.40;;;;;;4996184;28;20052;-89
2022/08/10 08:52:54;;;;;;;3.25;1.48;;;28.20;99.90;;;;;;5005650;28;20046;-87
2022/08/10 08:55:50;;;;;;;2.47;1.35;;;28.40;99.40;;;;;;5000287;28;20111;-87
2022/08/10 08:58:27;;;;;;;3.17;1.30;;;28.20;99.50;;;;;;5027818;28;20037;-87
2022/08/10 09:01:35;;;;;;;4.68;1.55;;;28.20;99.20;;;;;;5014352;28;20042;-86
2022/08/10 09:04:32;;;;;;;4.05;1.33;;;28.20;99.40;;;;;;4986505;28;20054;-87
2022/08/10 09:07:10;;;;;;;5.88;1.45;;;28.50;98.70;;;;;;4999637;28;20049;-87
2022/08/10 09:09:58;;;;;;;6.30;1.30;;;28.50;98.80;;;;;;5016680;28;20116;-87
2022/08/10 09:12:48;;;;;;;4.25;1.38;;;28.70;98.50;;;;;;5013953;28;20493;-87
2022/08/10 09:15:23;;;;;;;2.10;1.05;;;28.60;98.20;;;;;;5026022;28;20044;-86
2022/08/10 09:18:17;;;;;;;3.85;1.23;;;28.50;97.70;;;;;;5027261;28;20489;-87
2022/08/10 09:21:04;;;;;;;4.57;1.38;;;28.60;97.40;;;;;;4995341;28;20045;-88
2022/08/10 09:23:38;;;;;;;3.55;1.40;;;28.70;97.80;;;;;;5010664;28;20045;-88
2022/08/10 09:26:21;;;;;;;3.65;1.38;;;28.90;97.80;;;;;;5011922;28;20048;-87
2022/08/10 09:28:51;;;;;;;2.60;1.38;;;29.20;97.80;;;;;;5010906;28;20574;-88
2022/08/10 09:31:21;;;;;;;5.88;1.48;;;29.40;97.60;;;;;;5012390;28;20064;-86
2022/08/10 09:34:18;;;;;;;2.97;1.50;;;29.30;97.10;;;;;;5009559;28;20113;-86
2022/08/10 09:37:11;;;;;;;2.55;1.38;;;29.10;97.10;;;;;;5013197;28;20048;-85
2022/08/10 09:39:53;;;;;;;3.28;1.25;;;29.10;96.90;;;;;;5026909;28;20409;-86
2022/08/10 09:42:24;;;;;;;3.25;1.17;;;29.50;97.90;;;;;;5012268;28;20490;-86
2022/08/10 09:45:01;;;;;;;9.52;1.30;;;29.70;96.90;;;;;;5020922;28;20041;-85
2022/08/10 09:48:05;;;;;;;3.03;1.27;;;30.40;97.10;;;;;;5010045;28;20097;-87
2022/08/10 09:50:55;;;;;;;3.25;1.20;;;30.60;95.90;;;;;;5025764;28;20057;-87
2022/08/10 09:53:40;;;;;;;2.97;1.20;;;30.80;95.60;;;;;;5020789;28;20052;-87
2022/08/10 09:56:25;;;;;;;4.10;1.47;;;31.00;95.60;;;;;;5021449;28;20041;-86
2022/08/10 09:59:11;;;;;;;3.72;1.10;;;31.10;95.70;;;;;;5026967;28;20045;-77
2022/08/10 10:01:51;;;;;;;3.13;0.98;;;31.30;94.70;;;;;;5027760;28;20041;-77
2022/08/10 10:04:37;;;;;;;3.13;1.10;;;31.30;95.10;;;;;;5026694;28;20123;-76
2022/08/10 10:07:07;;;;;;;3.88;1.05;;;31.20;94.30;;;;;;5025564;28;20517;-76
2022/08/10 10:09:50;;;;;;;2.95;1.02;;;31.40;95.10;;;;;;5026832;28;20037;-76
2022/08/10 10:12:25;;;;;;;2.40;1.17;;;31.00;94.00;;;;;;5025359;28;20060;-76
2022/08/10 10:15:19;;;;;;;2.53;1.00;;;31.30;94.50;;;;;;5015502;28;20124;-76
2022/08/10 10:18:06;;;;;;;4.75;1.02;;;31.50;93.90;;;;;;5004814;28;20419;-76
2022/08/10 10:21:04;;;;;;;2.80;1.00;;;31.60;94.00;;;;;;5005813;28;20088;-76
2022/08/10 10:24:38;;;;;;;2.53;1.00;;;31.60;94.30;;;;;;4996169;28;20119;-78
2022/08/10 10:27:39;;;;;;;1.40;0.98;;;31.60;94.00;;;;;;4928372;28;20956;-77
2022/08/10 10:30:12;;;;;;;3.50;1.25;;;31.50;93.80;;;;;;5006140;28;20103;-77
2022/08/10 10:33:24;;;;;;;3.47;0.98;;;31.60;93.70;;;;;;5006451;28;20095;-76
2022/08/10 10:35:53;;;;;;;4.53;0.80;;;31.70;93.40;;;;;;4996304;28;20137;-76
2022/08/10 10:38:28;;;;;;;1.33;0.70;;;31.80;93.20;;;;;;5003616;28;20054;-76
2022/08/10 10:40:54;;;;;;;1.48;0.68;;;32.20;93.30;;;;;;5007726;28;20549;-76
2022/08/10 10:43:29;;;;;;;2.80;0.85;;;32.30;92.80;;;;;;5003857;28;20069;-77
2022/08/10 10:46:10;;;;;;;2.08;0.70;;;32.50;92.70;;;;;;5006901;28;20044;-76
2022/08/10 10:49:10;;;;;;;1.92;0.80;;;32.30;92.50;;;;;;5002190;28;20048;-75
2022/08/10 10:52:03;;;;;;;1.95;0.90;;;32.20;92.50;;;;;;5006088;28;20034;-76
2022/08/10 10:54:40;;;;;;;1.75;0.70;;;32.30;92.50;;;;;;5006005;28;20046;-76
2022/08/10 10:57:18;;;;;;;4.93;0.73;;;32.40;92.10;;;;;;5024379;28;20041;-76
2022/08/10 10:59:59;;;;;;;2.30;0.70;;;32.10;92.10;;;;;;5026390;28;20044;-75
2022/08/10 11:02:44;;;;;;;1.38;0.80;;;32.30;92.60;;;;;;5025167;28;20048;-75
2022/08/10 11:05:46;;;;;;;2.70;0.80;;;32.60;92.50;;;;;;5019858;28;20089;-78
2022/08/10 11:08:18;;;;;;;1.50;0.70;;;32.50;92.00;;;;;;5005296;28;20068;-77
2022/08/10 11:11:11;;;;;;;2.88;0.77;;;32.80;92.30;;;;;;5006440;28;20049;-76
2022/08/10 11:14:04;;;;;;;3.60;0.98;;;32.80;91.40;;;;;;5004877;28;20111;-77
2022/08/10 11:16:50;;;;;;;1.38;0.70;;;33.40;92.40;;;;;;5024831;28;20091;-76
2022/08/10 11:19:25;;;;;;;2.13;0.60;;;33.40;91.60;;;;;;5024406;28;20041;-77
2022/08/10 11:22:04;;;;;;;2.63;0.80;;;33.40;91.50;;;;;;5026004;28;20054;-77
2022/08/10 11:24:57;;;;;;;2.85;0.80;;;33.50;91.70;;;;;;5025028;28;20428;-77
2022/08/10 11:27:32;;;;;;;1.95;0.68;;;33.70;91.20;;;;;;5008270;28;20203;-78
2022/08/10 11:30:05;;;;;;;2.53;0.50;;;33.60;90.90;;;;;;5010130;28;20409;-77
2022/08/10 11:33:13;;;;;;;1.05;0.60;;;33.50;90.70;;;;;;5005772;28;20061;-77
2022/08/10 11:35:49;;;;;;;1.67;0.60;;;33.40;90.80;;;;;;5014829;28;20045;-78
2022/08/10 11:38:22;;;;;;;1.95;0.50;;;33.60;90.40;;;;;;5006837;28;20060;-79
2022/08/10 11:41:20;;;;;;;2.13;0.50;;;33.70;90.30;;;;;;5008726;28;20088;-83
2022/08/10 11:43:55;;;;;;;2.13;0.77;;;34.10;90.80;;;;;;5006994;28;20034;-78
2022/08/10 11:46:30;;;;;;;1.75;0.50;;;34.30;91.10;;;;;;5005320;28;20076;-80
2022/08/10 11:49:10;;;;;;;1.30;0.70;;;34.30;90.00;;;;;;5009166;28;20045;-80
2022/08/10 11:51:46;;;;;;;2.08;0.60;;;34.00;90.50;;;;;;4999084;28;20096;-78
2022/08/10 11:54:20;;;;;;;4.85;0.60;;;34.30;90.20;;;;;;4987878;28;20100;-79
2022/08/10 11:56:53;;;;;;;2.63;0.60;;;34.20;90.10;;;;;;4986968;28;20103;-78
2022/08/10 12:02:11;;;;;;;1.52;0.70;;;33.80;89.00;;;;;;5019670;28;20072;-76
2022/08/10 12:04:40;;;;;;;1.33;0.55;;;33.80;89.50;;;;;;5012823;28;20370;-78
2022/08/10 12:07:08;;;;;;;2.35;0.60;;;33.90;90.00;;;;;;5008558;28;20049;-78
2022/08/10 12:09:34;;;;;;;0.73;0.60;;;33.70;88.00;;;;;;5022772;28;20488;-76
2022/08/10 12:12:01;;;;;;;1.00;0.60;;;33.30;88.60;;;;;;5014658;28;20045;-78
2022/08/10 12:14:39;;;;;;;2.35;0.70;;;33.50;88.90;;;;;;5002769;28;20049;-79
2022/08/10 12:17:23;;;;;;;2.17;0.80;;;33.70;88.60;;;;;;5026406;28;20048;-79
2022/08/10 12:20:23;;;;;;;3.60;0.90;;;33.80;89.20;;;;;;5021955;28;20408;-79
2022/08/10 12:23:21;;;;;;;2.83;0.60;;;34.20;88.60;;;;;;5025696;28;20034;-80
2022/08/10 12:25:46;;;;;;;1.83;0.95;;;34.00;87.00;;;;;;5001459;28;20097;-80
2022/08/10 12:28:30;;;;;;;2.80;0.80;;;33.90;87.90;;;;;;5022924;28;20125;-82
2022/08/10 12:30:58;;;;;;;2.15;0.80;;;34.00;87.80;;;;;;5022043;28;20049;-80
2022/08/10 12:33:31;;;;;;;1.73;0.77;;;34.00;88.20;;;;;;5010348;28;20475;-79
2022/08/10 12:36:00;;;;;;;1.55;0.73;;;34.40;87.40;;;;;;5018585;28;20045;-79
2022/08/10 12:38:29;;;;;;;1.42;0.47;;;34.40;87.90;;;;;;5019951;28;20054;-79
2022/08/10 12:40:56;;;;;;;1.45;0.45;;;34.40;87.20;;;;;;5009382;28;20095;-78
2022/08/10 12:43:28;;;;;;;6.55;0.60;;;34.10;86.60;;;;;;5026522;28;20148;-78
2022/08/10 12:46:19;;;;;;;3.90;0.70;;;34.50;88.10;;;;;;5013068;28;20041;-80
2022/08/10 12:48:59;;;;;;;4.68;0.70;;;34.30;87.40;;;;;;5009949;28;20547;-78
2022/08/10 12:51:31;;;;;;;1.92;0.60;;;34.50;87.40;;;;;;5015418;28;20064;-78
2022/08/10 12:54:27;;;;;;;3.78;0.63;;;34.20;87.50;;;;;;5027142;28;20041;-79
2022/08/10 12:57:21;;;;;;;1.60;0.50;;;34.00;86.20;;;;;;4999975;28;20061;-79
2022/08/10 12:59:50;;;;;;;1.65;0.57;;;34.00;86.00;;;;;;5026560;28;20056;-79
2022/08/10 13:02:28;;;;;;;2.28;0.60;;;34.00;86.40;;;;;;5023712;28;20079;-79
2022/08/10 13:04:57;;;;;;;1.52;0.40;;;34.00;87.60;;;;;;4993048;28;20048;-79
2022/08/10 13:07:34;;;;;;;1.00;0.60;;;34.20;86.80;;;;;;5018584;28;20037;-82
2022/08/10 13:10:15;;;;;;;4.93;0.80;;;34.40;86.80;;;;;;5026221;28;20041;-78
2022/08/10 13:12:45;;;;;;;2.15;0.50;;;34.20;88.10;;;;;;5024938;28;20045;-79
2022/08/10 13:15:47;;;;;;;2.65;0.50;;;33.70;88.00;;;;;;5005680;28;20045;-78
2022/08/10 13:18:15;;;;;;;1.98;0.65;;;34.30;88.90;;;;;;4973056;28;20132;-79
2022/08/10 13:20:41;;;;;;;2.65;0.57;;;34.20;88.00;;;;;;4990380;28;20057;-79
2022/08/10 13:23:23;;;;;;;1.45;0.75;;;34.30;86.90;;;;;;5016925;28;20531;-77
2022/08/10 13:25:51;;;;;;;2.47;0.50;;;34.40;87.40;;;;;;5028900;28;20053;-77